createdAt,value
2017-11-27T00:00:52.708Z,1017.48
2017-11-27T00:01:53.280Z,1017.47
2017-11-27T00:02:52.673Z,1017.49
2017-11-27T00:03:52.669Z,1017.46
2017-11-27T00:04:52.659Z,1017.47
2017-11-27T00:05:52.645Z,1017.45
2017-11-27T00:06:53.275Z,1017.45
2017-11-27T00:07:52.631Z,1017.44
2017-11-27T00:08:52.616Z,1017.43
2017-11-27T00:09:52.616Z,1017.38
2017-11-27T00:10:52.601Z,1017.40
2017-11-27T00:11:52.594Z,1017.38
2017-11-27T00:12:52.577Z,1017.35
2017-11-27T00:13:52.572Z,1017.34
2017-11-27T00:14:52.568Z,1017.32
2017-11-27T00:15:52.552Z,1017.34
2017-11-27T00:16:52.541Z,1017.33
2017-11-27T00:17:52.528Z,1017.34
2017-11-27T00:18:52.517Z,1017.32
2017-11-27T00:19:52.508Z,1017.24
2017-11-27T00:20:52.502Z,1017.25
2017-11-27T00:21:52.487Z,1017.29
2017-11-27T00:22:52.478Z,1017.25
2017-11-27T00:23:52.471Z,1017.22
2017-11-27T00:24:52.458Z,1017.21
2017-11-27T00:25:52.459Z,1017.19
2017-11-27T00:26:52.446Z,1017.20
2017-11-27T00:27:52.433Z,1017.15
2017-11-27T00:28:52.422Z,1017.15
2017-11-27T00:29:52.408Z,1017.18
2017-11-27T00:30:52.391Z,1017.15
2017-11-27T00:31:52.391Z,1017.16
2017-11-27T00:32:52.377Z,1017.08
2017-11-27T00:33:52.372Z,1017.12
2017-11-27T00:34:52.368Z,1017.11
2017-11-27T00:35:52.362Z,1017.11
2017-11-27T00:36:52.341Z,1017.14
2017-11-27T00:37:52.345Z,1017.14
2017-11-27T00:38:52.322Z,1017.13
2017-11-27T00:39:52.316Z,1017.17
2017-11-27T00:40:52.300Z,1017.18
2017-11-27T00:41:52.293Z,1017.15
2017-11-27T00:42:52.286Z,1017.20
2017-11-27T00:43:52.269Z,1017.13
2017-11-27T00:44:52.276Z,1017.14
2017-11-27T00:45:52.249Z,1017.14
2017-11-27T00:46:52.786Z,1017.11
2017-11-27T00:47:52.242Z,1017.13
2017-11-27T00:48:52.215Z,1017.09
2017-11-27T00:49:52.212Z,1017.05
2017-11-27T00:50:52.201Z,1017.13
2017-11-27T00:51:52.194Z,1017.12
2017-11-27T00:52:52.183Z,1017.13
2017-11-27T00:53:52.171Z,1017.13
2017-11-27T00:54:52.166Z,1017.12
2017-11-27T00:55:52.153Z,1017.15
2017-11-27T00:56:52.150Z,1017.15
2017-11-27T00:57:52.144Z,1017.16
2017-11-27T00:58:52.135Z,1017.18
2017-11-27T00:59:52.114Z,1017.12
2017-11-27T01:00:52.792Z,1017.14
2017-11-27T01:01:52.097Z,1017.14
2017-11-27T01:02:52.087Z,1017.12
2017-11-27T01:03:52.071Z,1017.07
2017-11-27T01:04:52.059Z,1017.12
2017-11-27T01:05:52.069Z,1017.09
2017-11-27T01:06:52.061Z,1017.05
2017-11-27T01:07:52.032Z,1017.06
2017-11-27T01:08:52.022Z,1017.04
2017-11-27T01:09:52.011Z,1017.07
2017-11-27T01:10:52.004Z,1017.10
2017-11-27T01:11:51.994Z,1017.03
2017-11-27T01:12:51.986Z,1017.02
2017-11-27T01:13:51.972Z,1017.03
2017-11-27T01:14:51.963Z,1016.97
2017-11-27T01:15:51.954Z,1016.98
2017-11-27T01:16:51.946Z,1016.99
2017-11-27T01:17:52.792Z,1017.01
2017-11-27T01:18:51.921Z,1017.00
2017-11-27T01:19:52.793Z,1017.03
2017-11-27T01:20:51.899Z,1016.99
2017-11-27T01:21:52.797Z,1016.99
2017-11-27T01:22:51.897Z,1016.97
2017-11-27T01:23:51.885Z,1017.03
2017-11-27T01:24:51.870Z,1017.01
2017-11-27T01:25:51.856Z,1017.01
2017-11-27T01:26:51.852Z,1016.95
2017-11-27T01:27:51.838Z,1016.99
2017-11-27T01:28:51.847Z,1016.96
2017-11-27T01:29:51.809Z,1016.96
2017-11-27T01:30:51.802Z,1017.04
2017-11-27T01:31:51.801Z,1017.00
2017-11-27T01:32:51.792Z,1017.04
2017-11-27T01:33:51.780Z,1017.04
2017-11-27T01:34:51.783Z,1017.04
2017-11-27T01:35:51.761Z,1017.01
2017-11-27T01:36:51.753Z,1017.03
2017-11-27T01:37:52.311Z,1016.98
2017-11-27T01:38:51.728Z,1016.98
2017-11-27T01:39:51.727Z,1017.04
2017-11-27T01:40:51.711Z,1017.00
2017-11-27T01:41:51.701Z,1017.06
2017-11-27T01:42:51.681Z,1017.05
2017-11-27T01:43:51.683Z,1017.01
2017-11-27T01:44:51.677Z,1017.06
2017-11-27T01:45:51.670Z,1017.08
2017-11-27T01:46:51.656Z,1017.01
2017-11-27T01:47:51.640Z,1017.11
2017-11-27T01:48:51.649Z,1017.12
2017-11-27T01:49:51.621Z,1017.14
2017-11-27T01:50:51.609Z,1017.09
2017-11-27T01:51:51.605Z,1017.08
2017-11-27T01:52:52.311Z,1017.01
2017-11-27T01:53:51.586Z,1017.07
2017-11-27T01:54:51.573Z,1017.08
2017-11-27T01:55:52.329Z,1017.09
2017-11-27T01:56:51.548Z,1017.05
2017-11-27T01:57:51.552Z,1017.06
2017-11-27T01:58:51.534Z,1017.05
2017-11-27T01:59:51.531Z,1017.00
2017-11-27T02:00:51.533Z,1017.03
2017-11-27T02:01:51.517Z,1016.99
2017-11-27T02:02:51.508Z,1016.98
2017-11-27T02:03:51.489Z,1017.01
2017-11-27T02:04:51.482Z,1016.92
2017-11-27T02:05:52.313Z,1016.95
2017-11-27T02:06:51.457Z,1016.97
2017-11-27T02:07:52.316Z,1016.96
2017-11-27T02:08:51.443Z,1016.94
2017-11-27T02:09:51.430Z,1016.91
2017-11-27T02:10:51.412Z,1016.92
2017-11-27T02:11:51.415Z,1016.89
2017-11-27T02:12:51.396Z,1016.95
2017-11-27T02:13:03.405Z,1016.93
2017-11-27T02:14:51.400Z,1016.93
2017-11-27T02:15:51.397Z,1016.89
2017-11-27T02:16:51.363Z,1016.91
2017-11-27T02:17:51.361Z,1016.88
2017-11-27T02:18:51.350Z,1016.89
2017-11-27T02:19:51.339Z,1016.90
2017-11-27T02:20:51.330Z,1016.94
2017-11-27T02:21:53.817Z,1016.93
2017-11-27T02:22:51.323Z,1016.91
2017-11-27T02:23:51.302Z,1016.91
2017-11-27T02:24:51.303Z,1016.90
2017-11-27T02:25:51.272Z,1016.83
2017-11-27T02:26:51.275Z,1016.88
2017-11-27T02:27:51.256Z,1016.84
2017-11-27T02:28:51.253Z,1016.84
2017-11-27T02:29:51.240Z,1016.83
2017-11-27T02:30:51.228Z,1016.81
2017-11-27T02:31:51.229Z,1016.77
2017-11-27T02:32:51.210Z,1016.79
2017-11-27T02:33:51.210Z,1016.85
2017-11-27T02:34:51.187Z,1016.81
2017-11-27T02:35:51.185Z,1016.81
2017-11-27T02:36:51.177Z,1016.82
2017-11-27T02:37:51.166Z,1016.75
2017-11-27T02:38:51.155Z,1016.83
2017-11-27T02:39:51.150Z,1016.87
2017-11-27T02:40:51.133Z,1016.81
2017-11-27T02:41:51.848Z,1016.78
2017-11-27T02:42:51.113Z,1016.78
2017-11-27T02:43:51.107Z,1016.76
2017-11-27T02:44:51.094Z,1016.67
2017-11-27T02:45:51.088Z,1016.74
2017-11-27T02:46:51.071Z,1016.69
2017-11-27T02:47:51.080Z,1016.65
2017-11-27T02:48:51.060Z,1016.66
2017-11-27T02:49:51.049Z,1016.63
2017-11-27T02:50:51.045Z,1016.58
2017-11-27T02:51:51.039Z,1016.57
2017-11-27T02:52:51.025Z,1016.57
2017-11-27T02:53:51.004Z,1016.52
2017-11-27T02:54:50.992Z,1016.58
2017-11-27T02:55:50.990Z,1016.52
2017-11-27T02:56:50.980Z,1016.54
2017-11-27T02:57:50.973Z,1016.60
2017-11-27T02:58:50.955Z,1016.50
2017-11-27T02:59:50.965Z,1016.53
2017-11-27T03:00:50.943Z,1016.55
2017-11-27T03:01:50.947Z,1016.50
2017-11-27T03:02:50.928Z,1016.51
2017-11-27T03:03:50.910Z,1016.57
2017-11-27T03:04:50.920Z,1016.56
2017-11-27T03:05:50.886Z,1016.56
2017-11-27T03:06:50.886Z,1016.54
2017-11-27T03:07:50.877Z,1016.55
2017-11-27T03:08:50.884Z,1016.55
2017-11-27T03:09:50.856Z,1016.57
2017-11-27T03:10:50.865Z,1016.57
2017-11-27T03:11:50.847Z,1016.59
2017-11-27T03:12:50.837Z,1016.49
2017-11-27T03:13:50.813Z,1016.56
2017-11-27T03:14:50.808Z,1016.54
2017-11-27T03:15:50.801Z,1016.54
2017-11-27T03:16:51.329Z,1016.60
2017-11-27T03:17:50.776Z,1016.64
2017-11-27T03:18:50.767Z,1016.56
2017-11-27T03:19:50.762Z,1016.52
2017-11-27T03:20:50.760Z,1016.53
2017-11-27T03:21:50.736Z,1016.48
2017-11-27T03:22:50.732Z,1016.44
2017-11-27T03:23:50.721Z,1016.48
2017-11-27T03:24:50.713Z,1016.43
2017-11-27T03:25:50.704Z,1016.39
2017-11-27T03:26:50.689Z,1016.46
2017-11-27T03:27:50.693Z,1016.43
2017-11-27T03:28:50.671Z,1016.36
2017-11-27T03:29:50.666Z,1016.44
2017-11-27T03:30:50.689Z,1016.34
2017-11-27T03:31:50.643Z,1016.39
2017-11-27T03:32:50.636Z,1016.39
2017-11-27T03:33:50.620Z,1016.41
2017-11-27T03:34:50.617Z,1016.38
2017-11-27T03:35:50.605Z,1016.36
2017-11-27T03:36:50.590Z,1016.39
2017-11-27T03:37:50.591Z,1016.37
2017-11-27T03:38:50.568Z,1016.34
2017-11-27T03:39:51.351Z,1016.32
2017-11-27T03:40:50.549Z,1016.30
2017-11-27T03:41:50.539Z,1016.28
2017-11-27T03:42:50.531Z,1016.28
2017-11-27T03:43:50.518Z,1016.30
2017-11-27T03:44:50.509Z,1016.32
2017-11-27T03:45:50.499Z,1016.28
2017-11-27T03:46:50.496Z,1016.26
2017-11-27T03:47:51.343Z,1016.27
2017-11-27T03:48:50.474Z,1016.25
2017-11-27T03:49:50.469Z,1016.24
2017-11-27T03:50:50.446Z,1016.25
2017-11-27T03:51:50.449Z,1016.25
2017-11-27T03:52:50.429Z,1016.21
2017-11-27T03:53:50.433Z,1016.27
2017-11-27T03:54:50.401Z,1016.20
2017-11-27T03:55:50.402Z,1016.21
2017-11-27T03:56:50.400Z,1016.17
2017-11-27T03:57:50.392Z,1016.18
2017-11-27T03:58:50.368Z,1016.14
2017-11-27T03:59:50.356Z,1016.10
2017-11-27T04:00:50.852Z,1016.13
2017-11-27T04:01:50.847Z,1016.13
2017-11-27T04:02:50.336Z,1016.13
2017-11-27T04:03:50.323Z,1016.09
2017-11-27T04:04:50.303Z,1016.05
2017-11-27T04:05:50.307Z,1016.06
2017-11-27T04:06:50.295Z,1016.04
2017-11-27T04:07:50.273Z,1016.01
2017-11-27T04:08:50.266Z,1016.03
2017-11-27T04:09:50.270Z,1015.99
2017-11-27T04:10:50.245Z,1015.98
2017-11-27T04:11:50.239Z,1015.87
2017-11-27T04:12:50.227Z,1015.95
2017-11-27T04:13:50.211Z,1015.87
2017-11-27T04:14:50.203Z,1015.91
2017-11-27T04:15:50.194Z,1015.88
2017-11-27T04:16:50.851Z,1015.83
2017-11-27T04:17:50.180Z,1015.81
2017-11-27T04:18:50.853Z,1015.81
2017-11-27T04:19:50.853Z,1015.84
2017-11-27T04:20:50.146Z,1015.77
2017-11-27T04:21:50.133Z,1015.77
2017-11-27T04:22:50.139Z,1015.76
2017-11-27T04:23:50.110Z,1015.72
2017-11-27T04:24:50.102Z,1015.68
2017-11-27T04:25:50.090Z,1015.65
2017-11-27T04:26:50.079Z,1015.62
2017-11-27T04:27:50.073Z,1015.64
2017-11-27T04:28:50.052Z,1015.57
2017-11-27T04:29:50.054Z,1015.54
2017-11-27T04:30:50.859Z,1015.58
2017-11-27T04:31:50.854Z,1015.57
2017-11-27T04:32:50.013Z,1015.57
2017-11-27T04:33:50.007Z,1015.56
2017-11-27T04:34:50.000Z,1015.53
2017-11-27T04:35:49.989Z,1015.55
2017-11-27T04:36:49.982Z,1015.53
2017-11-27T04:37:49.960Z,1015.52
2017-11-27T04:38:49.953Z,1015.54
2017-11-27T04:39:49.950Z,1015.50
2017-11-27T04:40:49.936Z,1015.53
2017-11-27T04:41:49.921Z,1015.47
2017-11-27T04:42:49.910Z,1015.52
2017-11-27T04:43:50.856Z,1015.51
2017-11-27T04:44:49.894Z,1015.58
2017-11-27T04:45:49.880Z,1015.58
2017-11-27T04:46:49.883Z,1015.59
2017-11-27T04:47:49.869Z,1015.55
2017-11-27T04:48:49.852Z,1015.53
2017-11-27T04:49:49.841Z,1015.45
2017-11-27T04:50:49.823Z,1015.48
2017-11-27T04:51:49.826Z,1015.52
2017-11-27T04:52:49.811Z,1015.53
2017-11-27T04:53:49.795Z,1015.49
2017-11-27T04:54:49.784Z,1015.47
2017-11-27T04:55:50.368Z,1015.52
2017-11-27T04:56:49.774Z,1015.45
2017-11-27T04:57:49.761Z,1015.48
2017-11-27T04:58:49.750Z,1015.50
2017-11-27T04:59:49.727Z,1015.42
2017-11-27T05:00:49.727Z,1015.42
2017-11-27T05:01:49.729Z,1015.39
2017-11-27T05:02:52.368Z,1015.38
2017-11-27T05:03:49.698Z,1015.43
2017-11-27T05:04:49.682Z,1015.43
2017-11-27T05:05:49.668Z,1015.44
2017-11-27T05:06:49.657Z,1015.42
2017-11-27T05:07:49.650Z,1015.45
2017-11-27T05:08:49.644Z,1015.37
2017-11-27T05:09:49.621Z,1015.34
2017-11-27T05:10:49.620Z,1015.39
2017-11-27T05:11:49.608Z,1015.30
2017-11-27T05:12:49.592Z,1015.35
2017-11-27T05:13:49.587Z,1015.29
2017-11-27T05:14:49.579Z,1015.36
2017-11-27T05:15:49.558Z,1015.35
2017-11-27T05:16:49.560Z,1015.35
2017-11-27T05:17:49.545Z,1015.37
2017-11-27T05:18:49.531Z,1015.26
2017-11-27T05:19:49.529Z,1015.30
2017-11-27T05:20:49.509Z,1015.23
2017-11-27T05:21:49.495Z,1015.14
2017-11-27T05:22:49.496Z,1015.14
2017-11-27T05:23:49.485Z,1015.13
2017-11-27T05:24:49.475Z,1015.10
2017-11-27T05:25:49.480Z,1015.12
2017-11-27T05:26:49.450Z,1015.16
2017-11-27T05:27:49.453Z,1015.11
2017-11-27T05:28:49.432Z,1015.13
2017-11-27T05:29:49.422Z,1015.15
2017-11-27T05:30:49.405Z,1015.06
2017-11-27T05:31:49.399Z,1015.07
2017-11-27T05:32:49.391Z,1015.08
2017-11-27T05:33:49.418Z,1015.02
2017-11-27T05:34:49.371Z,1015.04
2017-11-27T05:35:49.547Z,1015.07
2017-11-27T05:36:49.353Z,1014.99
2017-11-27T05:37:49.363Z,1015.01
2017-11-27T05:38:49.348Z,1014.96
2017-11-27T05:39:49.318Z,1015.04
2017-11-27T05:40:49.311Z,1015.01
2017-11-27T05:41:49.296Z,1014.92
2017-11-27T05:42:49.285Z,1014.95
2017-11-27T05:43:49.279Z,1014.93
2017-11-27T05:44:49.267Z,1014.93
2017-11-27T05:45:49.287Z,1014.94
2017-11-27T05:46:49.255Z,1014.93
2017-11-27T05:47:49.242Z,1014.90
2017-11-27T05:48:49.224Z,1014.86
2017-11-27T05:49:49.209Z,1014.93
2017-11-27T05:50:49.204Z,1014.88
2017-11-27T05:51:49.198Z,1014.86
2017-11-27T05:52:49.187Z,1014.88
2017-11-27T05:53:49.176Z,1014.85
2017-11-27T05:54:49.900Z,1014.83
2017-11-27T05:55:49.167Z,1014.81
2017-11-27T05:56:49.161Z,1014.85
2017-11-27T05:57:49.157Z,1014.84
2017-11-27T05:58:49.131Z,1014.90
2017-11-27T05:59:49.123Z,1014.84
2017-11-27T06:00:49.106Z,1014.83
2017-11-27T06:01:49.097Z,1014.83
2017-11-27T06:02:49.084Z,1014.82
2017-11-27T06:03:49.086Z,1014.80
2017-11-27T06:04:49.067Z,1014.82
2017-11-27T06:05:49.076Z,1014.79
2017-11-27T06:06:49.047Z,1014.80
2017-11-27T06:07:49.042Z,1014.75
2017-11-27T06:08:49.030Z,1014.77
2017-11-27T06:09:49.024Z,1014.74
2017-11-27T06:10:49.005Z,1014.73
2017-11-27T06:11:49.009Z,1014.75
2017-11-27T06:12:48.990Z,1014.77
2017-11-27T06:13:48.972Z,1014.73
2017-11-27T06:14:48.964Z,1014.76
2017-11-27T06:15:48.974Z,1014.70
2017-11-27T06:16:48.966Z,1014.65
2017-11-27T06:17:48.936Z,1014.68
2017-11-27T06:18:48.921Z,1014.64
2017-11-27T06:19:48.918Z,1014.62
2017-11-27T06:20:48.902Z,1014.56
2017-11-27T06:21:48.896Z,1014.57
2017-11-27T06:22:48.889Z,1014.52
2017-11-27T06:23:48.880Z,1014.50
2017-11-27T06:24:48.863Z,1014.53
2017-11-27T06:25:48.861Z,1014.49
2017-11-27T06:26:48.850Z,1014.54
2017-11-27T06:27:48.837Z,1014.52
2017-11-27T06:28:48.831Z,1014.48
2017-11-27T06:29:48.819Z,1014.40
2017-11-27T06:30:48.806Z,1014.42
2017-11-27T06:31:48.812Z,1014.43
2017-11-27T06:32:48.795Z,1014.42
2017-11-27T06:33:48.782Z,1014.37
2017-11-27T06:34:48.772Z,1014.40
2017-11-27T06:35:48.771Z,1014.30
2017-11-27T06:36:48.759Z,1014.30
2017-11-27T06:37:48.749Z,1014.31
2017-11-27T06:38:48.734Z,1014.34
2017-11-27T06:39:48.726Z,1014.26
2017-11-27T06:40:48.727Z,1014.25
2017-11-27T06:41:48.713Z,1014.24
2017-11-27T06:42:48.720Z,1014.23
2017-11-27T06:43:48.699Z,1014.20
2017-11-27T06:44:48.684Z,1014.28
2017-11-27T06:45:48.677Z,1014.20
2017-11-27T06:46:48.713Z,1014.18
2017-11-27T06:47:48.661Z,1014.13
2017-11-27T06:48:48.643Z,1014.15
2017-11-27T06:49:48.633Z,1014.14
2017-11-27T06:50:49.093Z,1014.12
2017-11-27T06:51:48.613Z,1014.06
2017-11-27T06:52:48.592Z,1014.04
2017-11-27T06:53:48.596Z,1014.03
2017-11-27T06:54:48.587Z,1014.05
2017-11-27T06:55:48.576Z,1014.07
2017-11-27T06:56:48.570Z,1014.00
2017-11-27T06:57:49.415Z,1013.98
2017-11-27T06:58:48.553Z,1013.96
2017-11-27T06:59:48.536Z,1013.99
2017-11-27T07:00:48.522Z,1013.96
2017-11-27T07:01:48.515Z,1013.93
2017-11-27T07:02:48.501Z,1013.96
2017-11-27T07:03:48.496Z,1013.89
2017-11-27T07:04:48.487Z,1013.94
2017-11-27T07:05:48.484Z,1013.93
2017-11-27T07:06:48.490Z,1013.89
2017-11-27T07:07:48.459Z,1013.87
2017-11-27T07:08:48.452Z,1013.87
2017-11-27T07:09:48.443Z,1013.83
2017-11-27T07:10:51.408Z,1013.81
2017-11-27T07:11:48.420Z,1013.85
2017-11-27T07:12:48.411Z,1013.79
2017-11-27T07:13:48.401Z,1013.77
2017-11-27T07:14:48.393Z,1013.76
2017-11-27T07:15:48.898Z,1013.77
2017-11-27T07:16:48.376Z,1013.76
2017-11-27T07:17:48.369Z,1013.76
2017-11-27T07:18:48.354Z,1013.76
2017-11-27T07:19:48.358Z,1013.79
2017-11-27T07:20:48.336Z,1013.75
2017-11-27T07:21:48.328Z,1013.72
2017-11-27T07:22:48.326Z,1013.73
2017-11-27T07:23:48.310Z,1013.71
2017-11-27T07:24:48.303Z,1013.67
2017-11-27T07:25:48.288Z,1013.62
2017-11-27T07:26:48.289Z,1013.64
2017-11-27T07:27:48.266Z,1013.57
2017-11-27T07:28:48.269Z,1013.63
2017-11-27T07:29:48.258Z,1013.53
2017-11-27T07:30:48.240Z,1013.48
2017-11-27T07:31:48.237Z,1013.51
2017-11-27T07:32:48.223Z,1013.49
2017-11-27T07:33:48.212Z,1013.46
2017-11-27T07:34:48.212Z,1013.41
2017-11-27T07:35:48.193Z,1013.38
2017-11-27T07:36:48.189Z,1013.41
2017-11-27T07:37:48.914Z,1013.43
2017-11-27T07:38:48.166Z,1013.39
2017-11-27T07:39:48.165Z,1013.43
2017-11-27T07:40:48.177Z,1013.41
2017-11-27T07:41:48.139Z,1013.46
2017-11-27T07:42:48.129Z,1013.36
2017-11-27T07:43:48.144Z,1013.37
2017-11-27T07:44:48.115Z,1013.36
2017-11-27T07:45:48.101Z,1013.30
2017-11-27T07:46:48.089Z,1013.27
2017-11-27T07:47:48.099Z,1013.25
2017-11-27T07:48:48.913Z,1013.26
2017-11-27T07:49:48.068Z,1013.22
2017-11-27T07:50:48.059Z,1013.23
2017-11-27T07:51:48.050Z,1013.22
2017-11-27T07:52:48.038Z,1013.21
2017-11-27T07:53:48.033Z,1013.15
2017-11-27T07:54:48.013Z,1013.18
2017-11-27T07:55:48.027Z,1013.14
2017-11-27T07:56:48.920Z,1013.14
2017-11-27T07:57:47.991Z,1013.09
2017-11-27T07:58:47.977Z,1013.13
2017-11-27T07:59:47.966Z,1013.08
2017-11-27T08:00:47.963Z,1013.04
2017-11-27T08:01:48.923Z,1013.04
2017-11-27T08:02:47.950Z,1013.03
2017-11-27T08:03:47.941Z,1013.08
2017-11-27T08:04:47.934Z,1013.03
2017-11-27T08:05:47.921Z,1012.99
2017-11-27T08:06:47.910Z,1012.93
2017-11-27T08:07:47.901Z,1012.92
2017-11-27T08:08:47.896Z,1012.92
2017-11-27T08:09:48.426Z,1012.92
2017-11-27T08:10:47.873Z,1012.82
2017-11-27T08:11:47.867Z,1012.85
2017-11-27T08:12:47.860Z,1012.83
2017-11-27T08:13:47.840Z,1012.78
2017-11-27T08:14:47.834Z,1012.81
2017-11-27T08:15:48.424Z,1012.82
2017-11-27T08:16:47.811Z,1012.84
2017-11-27T08:17:47.811Z,1012.74
2017-11-27T08:18:47.796Z,1012.77
2017-11-27T08:19:47.804Z,1012.76
2017-11-27T08:20:47.785Z,1012.77
2017-11-27T08:21:47.781Z,1012.80
2017-11-27T08:22:47.783Z,1012.79
2017-11-27T08:23:48.428Z,1012.79
2017-11-27T08:24:47.772Z,1012.79
2017-11-27T08:25:48.431Z,1012.76
2017-11-27T08:26:47.725Z,1012.71
2017-11-27T08:27:47.731Z,1012.79
2017-11-27T08:28:47.708Z,1012.73
2017-11-27T08:29:47.700Z,1012.70
2017-11-27T08:30:47.686Z,1012.71
2017-11-27T08:31:47.691Z,1012.69
2017-11-27T08:32:48.517Z,1012.71
2017-11-27T08:33:48.441Z,1012.67
2017-11-27T08:34:50.436Z,1012.64
2017-11-27T08:35:48.435Z,1012.60
2017-11-27T08:36:47.647Z,1012.60
2017-11-27T08:37:47.636Z,1012.57
2017-11-27T08:38:47.632Z,1012.62
2017-11-27T08:39:47.610Z,1012.53
2017-11-27T08:40:47.619Z,1012.51
2017-11-27T08:41:50.436Z,1012.51
2017-11-27T08:42:47.588Z,1012.44
2017-11-27T08:43:47.570Z,1012.37
2017-11-27T08:44:47.580Z,1012.38
2017-11-27T08:45:47.551Z,1012.40
2017-11-27T08:46:47.539Z,1012.34
2017-11-27T08:47:48.432Z,1012.37
2017-11-27T08:48:47.528Z,1012.39
2017-11-27T08:49:47.537Z,1012.34
2017-11-27T08:50:47.519Z,1012.40
2017-11-27T08:51:47.506Z,1012.29
2017-11-27T08:52:47.489Z,1012.32
2017-11-27T08:53:47.486Z,1012.25
2017-11-27T08:54:48.444Z,1012.18
2017-11-27T08:55:47.480Z,1012.16
2017-11-27T08:56:47.462Z,1012.08
2017-11-27T08:57:47.445Z,1012.15
2017-11-27T08:58:47.449Z,1012.09
2017-11-27T08:59:47.441Z,1012.15
2017-11-27T09:00:47.441Z,1012.14
2017-11-27T09:01:47.423Z,1012.11
2017-11-27T09:02:47.408Z,1012.10
2017-11-27T09:03:47.399Z,1012.03
2017-11-27T09:04:47.392Z,1012.07
2017-11-27T09:05:47.381Z,1011.99
2017-11-27T09:06:47.381Z,1012.03
2017-11-27T09:07:47.933Z,1011.99
2017-11-27T09:08:47.360Z,1012.05
2017-11-27T09:09:47.344Z,1012.06
2017-11-27T09:10:47.334Z,1011.90
2017-11-27T09:11:47.318Z,1011.98
2017-11-27T09:12:47.319Z,1011.89
2017-11-27T09:13:47.319Z,1011.97
2017-11-27T09:14:47.945Z,1011.87
2017-11-27T09:15:47.296Z,1011.98
2017-11-27T09:16:47.284Z,1011.87
2017-11-27T09:17:47.271Z,1011.81
2017-11-27T09:18:47.944Z,1011.79
2017-11-27T09:19:47.949Z,1011.82
2017-11-27T09:20:47.251Z,1011.74
2017-11-27T09:21:47.240Z,1011.77
2017-11-27T09:22:47.233Z,1011.73
2017-11-27T09:23:47.223Z,1011.78
2017-11-27T09:24:47.204Z,1011.72
2017-11-27T09:25:47.216Z,1011.71
2017-11-27T09:26:47.199Z,1011.66
2017-11-27T09:27:47.185Z,1011.68
2017-11-27T09:28:47.181Z,1011.65
2017-11-27T09:29:47.180Z,1011.55
2017-11-27T09:30:47.161Z,1011.54
2017-11-27T09:31:47.156Z,1011.50
2017-11-27T09:32:47.148Z,1011.49
2017-11-27T09:33:47.966Z,1011.58
2017-11-27T09:34:47.128Z,1011.54
2017-11-27T09:35:47.118Z,1011.60
2017-11-27T09:36:47.111Z,1011.52
2017-11-27T09:37:47.112Z,1011.51
2017-11-27T09:38:47.090Z,1011.56
2017-11-27T09:39:47.086Z,1011.54
2017-11-27T09:40:47.958Z,1011.51
2017-11-27T09:41:47.063Z,1011.50
2017-11-27T09:42:47.048Z,1011.48
2017-11-27T09:43:47.044Z,1011.54
2017-11-27T09:44:47.035Z,1011.50
2017-11-27T09:45:47.038Z,1011.58
2017-11-27T09:46:47.032Z,1011.59
2017-11-27T09:47:49.953Z,1011.36
2017-11-27T09:48:47.009Z,1011.41
2017-11-27T09:49:46.997Z,1011.38
2017-11-27T09:50:46.993Z,1011.30
2017-11-27T09:51:46.986Z,1011.39
2017-11-27T09:52:46.977Z,1011.36
2017-11-27T09:53:46.978Z,1011.29
2017-11-27T09:54:46.954Z,1011.33
2017-11-27T09:55:46.958Z,1011.19
2017-11-27T09:56:46.940Z,1011.23
2017-11-27T09:57:46.924Z,1011.28
2017-11-27T09:58:46.920Z,1011.25
2017-11-27T09:59:46.929Z,1011.23
2017-11-27T10:00:46.905Z,1011.22
2017-11-27T10:01:46.899Z,1011.22
2017-11-27T10:02:46.890Z,1011.12
2017-11-27T10:03:46.886Z,1011.12
2017-11-27T10:04:46.876Z,1011.12
2017-11-27T10:05:46.860Z,1011.03
2017-11-27T10:06:46.850Z,1011.11
2017-11-27T10:07:46.843Z,1011.08
2017-11-27T10:08:46.840Z,1011.03
2017-11-27T10:09:46.833Z,1010.99
2017-11-27T10:10:46.821Z,1010.98
2017-11-27T10:11:46.816Z,1011.04
2017-11-27T10:12:46.806Z,1010.98
2017-11-27T10:13:47.463Z,1010.99
2017-11-27T10:14:46.792Z,1010.85
2017-11-27T10:15:46.784Z,1010.96
2017-11-27T10:16:46.772Z,1010.94
2017-11-27T10:17:46.762Z,1010.95
2017-11-27T10:18:46.759Z,1010.88
2017-11-27T10:19:46.749Z,1010.90
2017-11-27T10:20:46.741Z,1010.90
2017-11-27T10:21:46.724Z,1010.92
2017-11-27T10:22:46.723Z,1010.92
2017-11-27T10:23:46.708Z,1010.90
2017-11-27T10:24:46.700Z,1010.71
2017-11-27T10:25:46.698Z,1010.74
2017-11-27T10:26:46.689Z,1010.77
2017-11-27T10:27:46.680Z,1010.75
2017-11-27T10:28:46.674Z,1010.73
2017-11-27T10:29:46.667Z,1010.62
2017-11-27T10:30:46.653Z,1010.59
2017-11-27T10:31:46.647Z,1010.61
2017-11-27T10:32:46.642Z,1010.52
2017-11-27T10:33:46.628Z,1010.51
2017-11-27T10:34:46.619Z,1010.55
2017-11-27T10:35:46.614Z,1010.49
2017-11-27T10:36:46.594Z,1010.42
2017-11-27T10:37:46.591Z,1010.50
2017-11-27T10:38:46.602Z,1010.51
2017-11-27T10:39:46.579Z,1010.46
2017-11-27T10:40:46.571Z,1010.50
2017-11-27T10:40:58.571Z,1010.45
2017-11-27T10:42:46.557Z,1010.48
2017-11-27T10:43:46.558Z,1010.31
2017-11-27T10:44:46.536Z,1010.31
2017-11-27T10:45:47.470Z,1010.37
2017-11-27T10:46:46.524Z,1010.34
2017-11-27T10:47:46.521Z,1010.25
2017-11-27T10:48:46.509Z,1010.29
2017-11-27T10:49:46.495Z,1010.24
2017-11-27T10:50:46.484Z,1010.18
2017-11-27T10:51:46.486Z,1010.24
2017-11-27T10:52:46.484Z,1010.19
2017-11-27T10:53:46.466Z,1010.16
2017-11-27T10:54:46.455Z,1010.18
2017-11-27T10:55:46.449Z,1010.14
2017-11-27T10:56:46.439Z,1010.16
2017-11-27T10:57:46.440Z,1010.10
2017-11-27T10:58:46.421Z,1010.09
2017-11-27T10:59:46.434Z,1010.09
2017-11-27T11:00:46.406Z,1010.15
2017-11-27T11:01:46.403Z,1010.10
2017-11-27T11:02:46.402Z,1010.05
2017-11-27T11:03:46.395Z,1010.00
2017-11-27T11:04:46.378Z,1009.97
2017-11-27T11:05:46.365Z,1009.96
2017-11-27T11:06:46.357Z,1009.92
2017-11-27T11:07:46.980Z,1009.96
2017-11-27T11:08:46.343Z,1009.90
2017-11-27T11:09:46.338Z,1009.85
2017-11-27T11:10:46.330Z,1009.82
2017-11-27T11:11:46.327Z,1009.81
2017-11-27T11:12:46.314Z,1009.78
2017-11-27T11:13:46.301Z,1009.76
2017-11-27T11:14:46.294Z,1009.78
2017-11-27T11:15:46.288Z,1009.75
2017-11-27T11:16:46.281Z,1009.76
2017-11-27T11:17:46.271Z,1009.73
2017-11-27T11:18:46.990Z,1009.66
2017-11-27T11:19:46.255Z,1009.63
2017-11-27T11:20:46.246Z,1009.69
2017-11-27T11:21:46.243Z,1009.66
2017-11-27T11:22:46.233Z,1009.62
2017-11-27T11:23:46.225Z,1009.55
2017-11-27T11:24:46.217Z,1009.55
2017-11-27T11:25:46.208Z,1009.53
2017-11-27T11:26:46.199Z,1009.51
2017-11-27T11:27:46.190Z,1009.53
2017-11-27T11:28:46.184Z,1009.47
2017-11-27T11:29:46.172Z,1009.46
2017-11-27T11:30:46.164Z,1009.39
2017-11-27T11:31:46.157Z,1009.41
2017-11-27T11:32:46.149Z,1009.40
2017-11-27T11:33:46.140Z,1009.32
2017-11-27T11:34:46.990Z,1009.29
2017-11-27T11:35:46.141Z,1009.26
2017-11-27T11:36:46.117Z,1009.31
2017-11-27T11:37:46.101Z,1009.22
2017-11-27T11:38:46.108Z,1009.22
2017-11-27T11:39:47.008Z,1009.18
2017-11-27T11:40:46.995Z,1009.11
2017-11-27T11:41:46.087Z,1009.10
2017-11-27T11:42:46.071Z,1009.09
2017-11-27T11:43:46.064Z,1009.05
2017-11-27T11:44:46.059Z,1009.08
2017-11-27T11:45:46.044Z,1009.00
2017-11-27T11:46:46.038Z,1008.95
2017-11-27T11:47:46.032Z,1008.97
2017-11-27T11:48:46.023Z,1008.88
2017-11-27T11:49:46.012Z,1008.88
2017-11-27T11:50:46.003Z,1008.94
2017-11-27T11:51:45.995Z,1008.88
2017-11-27T11:52:46.001Z,1008.82
2017-11-27T11:53:45.989Z,1008.82
2017-11-27T11:54:45.977Z,1008.79
2017-11-27T11:55:45.970Z,1008.71
2017-11-27T11:56:45.963Z,1008.80
2017-11-27T11:57:45.951Z,1008.69
2017-11-27T11:58:45.944Z,1008.71
2017-11-27T11:59:45.930Z,1008.71
2017-11-27T12:00:45.931Z,1008.66
2017-11-27T12:01:45.917Z,1008.60
2017-11-27T12:02:45.915Z,1008.59
2017-11-27T12:03:45.904Z,1008.58
2017-11-27T12:04:45.892Z,1008.55
2017-11-27T12:05:45.888Z,1008.42